Time;durP1;ratioP1;P1;durP2;ratioP2;P2;SDS_P1;SDS_P2;PMS_P1;PMS_P2;Temp;Humidity;BMP_temperature;BMP_pressure;BME280_temperature;BME280_humidity;BME280_pressure;Samples;Min_cycle;Max_cycle;Signal;HPM_P1;HPM_P2
2023/12/15 00:01:55;;;;;;;51.92;28.98;;;6.10;99.00;;;;;;5078260;28;20102;-83
2023/12/15 00:04:21;;;;;;;51.05;29.17;;;6.10;98.80;;;;;;5061687;28;20131;-81
2023/12/15 00:06:46;;;;;;;63.47;32.22;;;6.10;99.00;;;;;;5061666;28;20066;-78
2023/12/15 00:09:12;;;;;;;63.55;32.17;;;6.10;98.90;;;;;;5094998;28;20044;-80
2023/12/15 00:11:37;;;;;;;64.50;29.77;;;6.10;99.20;;;;;;5045119;28;20400;-80
2023/12/15 00:14:03;;;;;;;60.58;31.13;;;6.20;99.00;;;;;;5095058;28;20507;-81
2023/12/15 00:16:29;;;;;;;64.50;31.65;;;6.20;99.00;;;;;;5061589;28;20126;-82
2023/12/15 00:18:54;;;;;;;66.63;32.38;;;6.20;99.00;;;;;;5094839;28;20446;-84
2023/12/15 00:21:20;;;;;;;63.47;32.15;;;6.20;98.90;;;;;;5077910;28;20063;-80
2023/12/15 00:23:46;;;;;;;65.85;33.10;;;6.30;98.80;;;;;;5061414;28;20036;-81
2023/12/15 00:26:12;;;;;;;64.13;33.40;;;6.30;98.90;;;;;;5094750;28;20122;-85
2023/12/15 00:28:37;;;;;;;77.65;34.50;;;6.30;98.80;;;;;;5077909;28;20032;-81
2023/12/15 00:31:03;;;;;;;58.80;30.83;;;6.30;99.00;;;;;;5077744;28;20043;-81
2023/12/15 00:33:29;;;;;;;64.90;32.58;;;6.30;98.80;;;;;;5094711;28;20040;-80
2023/12/15 00:35:54;;;;;;;81.15;33.13;;;6.30;99.00;;;;;;5078070;28;20040;-83
2023/12/15 00:38:20;;;;;;;60.13;31.05;;;6.30;98.90;;;;;;5061141;28;20595;-81
2023/12/15 00:40:46;;;;;;;71.85;33.63;;;6.30;98.90;;;;;;5060720;28;20093;-79
2023/12/15 00:43:13;;;;;;;54.47;29.42;;;6.30;98.80;;;;;;5094734;28;20040;-81
2023/12/15 00:45:41;;;;;;;67.07;34.00;;;6.30;98.80;;;;;;5077812;28;20040;-80
2023/12/15 00:48:07;;;;;;;73.45;32.83;;;6.40;98.60;;;;;;5078159;28;20384;-80
2023/12/15 00:50:33;;;;;;;55.80;30.85;;;6.30;98.70;;;;;;5094429;28;20036;-81
2023/12/15 00:52:59;;;;;;;70.60;33.72;;;6.40;98.60;;;;;;5077717;28;20039;-80
2023/12/15 00:55:24;;;;;;;75.30;35.45;;;6.30;99.00;;;;;;5061016;28;20079;-80
2023/12/15 00:57:50;;;;;;;70.95;32.25;;;6.20;98.90;;;;;;5060664;28;20036;-80
2023/12/15 01:00:16;;;;;;;67.38;30.85;;;6.20;99.00;;;;;;5093865;28;20044;-81
2023/12/15 01:02:42;;;;;;;59.65;31.02;;;6.20;98.90;;;;;;5060916;28;20039;-81
2023/12/15 01:05:07;;;;;;;65.22;31.92;;;6.20;98.70;;;;;;5077456;28;20036;-79
2023/12/15 01:07:33;;;;;;;69.00;32.05;;;6.10;98.90;;;;;;5077236;28;20047;-82
2023/12/15 01:09:59;;;;;;;58.88;30.85;;;6.10;99.00;;;;;;5077047;28;20036;-81
2023/12/15 01:12:24;;;;;;;58.33;30.02;;;6.00;98.90;;;;;;5110920;27;20036;-81
2023/12/15 01:14:50;;;;;;;52.97;29.15;;;6.00;99.00;;;;;;5093790;28;20080;-79
2023/12/15 01:17:16;;;;;;;64.68;30.90;;;6.00;99.00;;;;;;5077518;28;20097;-82
2023/12/15 01:19:41;;;;;;;53.92;28.80;;;6.00;99.00;;;;;;5060304;28;20510;-79
2023/12/15 01:22:07;;;;;;;52.85;28.58;;;5.90;99.10;;;;;;5076939;28;20040;-80
2023/12/15 01:24:33;;;;;;;56.25;28.35;;;5.90;99.10;;;;;;5110645;27;20040;-79
2023/12/15 01:26:58;;;;;;;54.00;29.33;;;5.90;99.10;;;;;;5093825;28;20042;-81
2023/12/15 01:29:24;;;;;;;58.92;29.27;;;5.80;99.10;;;;;;5093573;28;20036;-79
2023/12/15 01:31:50;;;;;;;57.00;28.35;;;5.80;99.00;;;;;;5060162;28;20075;-81
2023/12/15 01:34:15;;;;;;;53.13;25.10;;;5.70;99.10;;;;;;5060015;28;20035;-81
2023/12/15 01:36:41;;;;;;;57.28;28.73;;;5.80;99.10;;;;;;5093360;28;20046;-79
2023/12/15 01:39:07;;;;;;;56.67;28.23;;;5.70;99.00;;;;;;5076735;28;20075;-83
2023/12/15 01:41:32;;;;;;;56.30;28.02;;;5.70;99.00;;;;;;5076326;28;20052;-81
2023/12/15 01:43:58;;;;;;;58.92;27.85;;;5.70;99.10;;;;;;5076399;28;20040;-79
2023/12/15 01:46:24;;;;;;;51.92;28.23;;;5.70;99.10;;;;;;5076469;28;20040;-82
2023/12/15 01:48:49;;;;;;;57.33;28.08;;;5.70;99.00;;;;;;5076347;28;20032;-82
2023/12/15 01:51:15;;;;;;;62.90;29.02;;;5.70;99.00;;;;;;5076377;28;20089;-80
2023/12/15 01:53:43;;;;;;;52.53;26.85;;;5.70;99.20;;;;;;5076552;28;20040;-80
2023/12/15 01:56:12;;;;;;;46.47;26.35;;;5.80;99.10;;;;;;5093294;28;20051;-79
2023/12/15 01:58:40;;;;;;;49.65;27.77;;;5.80;99.10;;;;;;5093204;28;20043;-79
2023/12/15 02:01:07;;;;;;;57.72;27.73;;;5.80;99.10;;;;;;5075925;28;20060;-80
2023/12/15 02:03:34;;;;;;;52.10;28.83;;;5.80;99.20;;;;;;5076044;28;20036;-83
2023/12/15 02:06:00;;;;;;;55.83;29.67;;;5.70;99.10;;;;;;5076052;28;20484;-79
2023/12/15 02:08:26;;;;;;;52.60;27.50;;;5.80;99.10;;;;;;5059379;28;20055;-79
2023/12/15 02:10:51;;;;;;;52.90;28.92;;;5.80;99.10;;;;;;5076055;28;20047;-80
2023/12/15 02:13:17;;;;;;;61.88;28.25;;;5.80;99.10;;;;;;5075364;28;20131;-80
2023/12/15 02:15:43;;;;;;;54.85;27.33;;;5.70;99.10;;;;;;5092963;28;20046;-79
2023/12/15 02:18:08;;;;;;;42.60;25.55;;;5.70;99.10;;;;;;5076059;28;20036;-81
2023/12/15 02:20:34;;;;;;;53.38;28.10;;;5.70;99.00;;;;;;5092498;28;20496;-79
2023/12/15 02:23:00;;;;;;;66.75;29.73;;;5.60;99.00;;;;;;5092788;28;20055;-83
2023/12/15 02:25:25;;;;;;;52.60;26.63;;;5.60;99.00;;;;;;5092553;28;20480;-82
2023/12/15 02:27:51;;;;;;;53.80;24.63;;;5.60;99.10;;;;;;5075609;28;20032;-80
2023/12/15 02:30:17;;;;;;;49.08;25.38;;;5.50;99.10;;;;;;5042328;28;20112;-80
2023/12/15 02:32:42;;;;;;;42.63;23.48;;;5.50;99.10;;;;;;5075774;28;20043;-80
2023/12/15 02:35:11;;;;;;;53.70;26.05;;;5.50;99.00;;;;;;5075538;28;20396;-80
2023/12/15 02:37:37;;;;;;;41.97;23.35;;;5.50;99.10;;;;;;5059155;28;20044;-81
2023/12/15 02:40:04;;;;;;;50.22;23.23;;;5.40;99.10;;;;;;5075089;28;20039;-79
2023/12/15 02:42:30;;;;;;;43.55;22.55;;;5.40;99.10;;;;;;5075644;28;20086;-80
2023/12/15 02:44:55;;;;;;;43.72;22.50;;;5.40;99.10;;;;;;5075405;28;20422;-82
2023/12/15 02:47:21;;;;;;;49.22;23.15;;;5.40;99.10;;;;;;5092179;28;20118;-83
2023/12/15 02:49:47;;;;;;;52.85;24.05;;;5.40;99.10;;;;;;5075306;28;20124;-79
2023/12/15 02:52:12;;;;;;;43.10;21.85;;;5.40;99.10;;;;;;5058572;28;20031;-79
2023/12/15 02:54:38;;;;;;;56.28;23.77;;;5.40;99.10;;;;;;5075511;28;20036;-80
2023/12/15 02:57:04;;;;;;;53.85;23.42;;;5.30;99.10;;;;;;5058516;28;20479;-81
2023/12/15 02:59:30;;;;;;;51.50;22.58;;;5.30;99.20;;;;;;5075150;28;20115;-82
2023/12/15 03:01:55;;;;;;;50.60;22.67;;;5.30;99.20;;;;;;5075112;28;20040;-79
2023/12/15 03:04:21;;;;;;;49.30;22.30;;;5.40;99.30;;;;;;5091941;28;20043;-79
2023/12/15 03:06:47;;;;;;;45.10;21.55;;;5.30;99.30;;;;;;5075240;28;20093;-81
2023/12/15 03:09:12;;;;;;;46.15;21.13;;;5.40;99.30;;;;;;5108770;28;20032;-80
2023/12/15 03:11:38;;;;;;;37.60;19.17;;;5.40;99.30;;;;;;5091792;28;20051;-82
2023/12/15 03:14:04;;;;;;;46.13;22.80;;;5.40;99.30;;;;;;5058372;28;20040;-79
2023/12/15 03:16:29;;;;;;;47.42;21.10;;;5.40;99.20;;;;;;5041984;28;20032;-80
2023/12/15 03:18:55;;;;;;;45.08;20.75;;;5.40;99.20;;;;;;5058231;28;20040;-80
2023/12/15 03:21:21;;;;;;;43.55;19.45;;;5.30;99.20;;;;;;5074889;28;20040;-82
2023/12/15 03:23:47;;;;;;;48.65;20.33;;;5.30;99.20;;;;;;5075241;28;20032;-82
2023/12/15 03:26:12;;;;;;;42.03;19.80;;;5.30;99.20;;;;;;5096141;28;20032;-81
2023/12/15 03:28:39;;;;;;;48.28;18.70;;;5.30;99.20;;;;;;5079097;28;20101;-78
2023/12/15 03:31:09;;;;;;;49.80;19.48;;;5.30;99.10;;;;;;5079343;28;20147;-81
2023/12/15 03:33:35;;;;;;;37.17;17.67;;;5.30;99.20;;;;;;5079018;28;20094;-83
2023/12/15 03:36:02;;;;;;;46.08;18.60;;;5.30;99.20;;;;;;5078975;28;20500;-82
2023/12/15 03:38:28;;;;;;;42.58;17.45;;;5.30;99.10;;;;;;5095789;28;20044;-80
2023/12/15 03:40:54;;;;;;;46.85;19.08;;;5.30;99.10;;;;;;5078476;28;20125;-82
2023/12/15 03:43:19;;;;;;;41.80;17.65;;;5.40;99.20;;;;;;5079016;28;20123;-83
2023/12/15 03:45:45;;;;;;;36.28;17.48;;;5.40;99.10;;;;;;5095849;28;20477;-81
2023/12/15 03:48:11;;;;;;;38.35;15.65;;;5.40;99.20;;;;;;5095798;28;20126;-80
2023/12/15 03:50:37;;;;;;;37.95;17.20;;;5.40;99.10;;;;;;5078577;28;20527;-80
2023/12/15 03:53:02;;;;;;;44.65;17.20;;;5.30;99.10;;;;;;5078944;28;20109;-80
2023/12/15 03:55:28;;;;;;;37.08;16.52;;;5.30;99.10;;;;;;5061855;28;20124;-82
2023/12/15 03:57:54;;;;;;;33.55;16.25;;;5.30;99.10;;;;;;5078422;28;20040;-80
2023/12/15 04:00:20;;;;;;;43.90;15.75;;;5.30;99.10;;;;;;5095476;28;20043;-81
2023/12/15 04:02:47;;;;;;;42.88;15.48;;;5.20;99.10;;;;;;5061847;28;20476;-82
2023/12/15 04:05:13;;;;;;;41.83;16.65;;;5.20;99.10;;;;;;5061688;28;20047;-79
2023/12/15 04:07:38;;;;;;;35.03;14.43;;;5.20;99.10;;;;;;5095219;28;20032;-79
2023/12/15 04:10:05;;;;;;;37.67;14.95;;;5.10;99.10;;;;;;5078152;28;20101;-79
2023/12/15 04:12:31;;;;;;;37.83;15.43;;;5.20;99.10;;;;;;5078160;28;20040;-81
2023/12/15 04:14:56;;;;;;;31.67;14.23;;;5.10;99.10;;;;;;5078203;28;20042;-83
2023/12/15 04:17:22;;;;;;;25.83;13.50;;;5.20;99.10;;;;;;5078201;28;20038;-80
2023/12/15 04:19:48;;;;;;;38.13;14.02;;;5.20;99.10;;;;;;5061412;28;20071;-82
2023/12/15 04:22:13;;;;;;;32.00;12.93;;;5.20;99.00;;;;;;5112115;27;20097;-80
2023/12/15 04:24:40;;;;;;;27.60;12.27;;;5.10;99.00;;;;;;5095066;28;20047;-82
2023/12/15 04:27:05;;;;;;;35.95;13.60;;;5.20;99.00;;;;;;5077828;28;20044;-77
2023/12/15 04:29:31;;;;;;;38.55;12.40;;;5.10;98.90;;;;;;5094971;28;20051;-79
2023/12/15 04:31:57;;;;;;;35.80;11.68;;;5.10;98.90;;;;;;5077806;28;20474;-81
2023/12/15 04:34:22;;;;;;;37.10;13.63;;;5.00;99.00;;;;;;5060981;28;20043;-80
2023/12/15 04:36:48;;;;;;;36.75;11.68;;;5.00;99.00;;;;;;5060860;28;20036;-79
2023/12/15 04:39:14;;;;;;;33.95;12.43;;;5.00;99.00;;;;;;5060967;28;20193;-81
2023/12/15 04:41:39;;;;;;;39.20;11.88;;;5.00;99.10;;;;;;5060751;28;20041;-82
2023/12/15 04:44:05;;;;;;;36.50;11.60;;;5.00;99.00;;;;;;5094564;28;20579;-80
2023/12/15 04:46:31;;;;;;;32.83;10.80;;;4.90;99.10;;;;;;5077847;28;20036;-80
2023/12/15 04:49:01;;;;;;;33.42;11.25;;;4.90;99.10;;;;;;5060806;28;20036;-81
2023/12/15 04:51:27;;;;;;;39.33;11.35;;;5.00;99.10;;;;;;5094396;28;20082;-81
2023/12/15 04:53:53;;;;;;;33.55;11.20;;;5.00;99.10;;;;;;5094332;28;20187;-80
2023/12/15 04:56:19;;;;;;;32.03;10.55;;;5.00;99.10;;;;;;5061075;28;20036;-81
2023/12/15 04:58:45;;;;;;;33.67;11.15;;;5.00;99.10;;;;;;5077335;28;20480;-82
2023/12/15 05:01:13;;;;;;;34.05;11.68;;;5.00;99.10;;;;;;5060594;28;20043;-80
2023/12/15 05:03:43;;;;;;;42.28;12.07;;;5.00;99.10;;;;;;5077470;28;20044;-79
2023/12/15 05:06:22;;;;;;;29.35;10.85;;;5.00;99.10;;;;;;5094011;28;20040;-82
2023/12/15 05:08:49;;;;;;;33.08;10.48;;;5.00;99.10;;;;;;5094086;28;20040;-78
2023/12/15 05:11:15;;;;;;;38.95;11.00;;;5.00;99.10;;;;;;5094016;28;20043;-81
2023/12/15 05:13:41;;;;;;;41.08;9.80;;;5.00;99.10;;;;;;5093917;28;20048;-80
2023/12/15 05:16:07;;;;;;;37.35;10.82;;;5.00;99.10;;;;;;5093768;28;20050;-81
2023/12/15 05:18:34;;;;;;;34.60;10.57;;;5.00;99.00;;;;;;5076865;28;20126;-80
2023/12/15 05:21:00;;;;;;;30.27;9.70;;;5.00;99.10;;;;;;5093531;28;20032;-81
2023/12/15 05:23:26;;;;;;;31.85;9.82;;;4.90;99.10;;;;;;5094163;28;20101;-81
2023/12/15 05:25:52;;;;;;;29.33;11.25;;;5.00;99.10;;;;;;5076931;28;20365;-80
2023/12/15 05:28:18;;;;;;;32.40;9.95;;;5.00;99.10;;;;;;5076728;28;20039;-80
2023/12/15 05:30:44;;;;;;;33.17;9.60;;;4.90;99.10;;;;;;5076731;28;20126;-82
2023/12/15 05:33:10;;;;;;;31.05;10.05;;;4.90;99.10;;;;;;5076787;28;20036;-82
2023/12/15 05:35:35;;;;;;;39.58;10.85;;;4.90;99.10;;;;;;5076578;28;20097;-79
2023/12/15 05:38:02;;;;;;;35.72;10.15;;;4.90;99.20;;;;;;5127920;27;20040;-79
2023/12/15 05:40:28;;;;;;;33.13;9.13;;;4.90;99.20;;;;;;5076230;28;20494;-81
2023/12/15 05:42:54;;;;;;;36.63;9.68;;;4.90;99.10;;;;;;5093652;28;20079;-82
2023/12/15 05:45:22;;;;;;;31.92;8.98;;;4.90;99.10;;;;;;5076251;28;20533;-82
2023/12/15 05:47:48;;;;;;;34.88;8.13;;;4.90;99.10;;;;;;5092263;28;20040;-83
2023/12/15 05:50:15;;;;;;;30.05;8.63;;;5.00;99.20;;;;;;5093106;28;20040;-81
2023/12/15 05:52:40;;;;;;;38.92;9.45;;;5.00;99.20;;;;;;5093300;28;20079;-83
2023/12/15 05:55:06;;;;;;;34.13;9.15;;;5.10;99.30;;;;;;5093253;28;20109;-81
2023/12/15 05:57:32;;;;;;;42.03;9.90;;;5.10;99.20;;;;;;5093289;28;20079;-83
2023/12/15 05:59:58;;;;;;;40.45;9.05;;;5.10;99.20;;;;;;5127474;27;20499;-83
2023/12/15 06:02:23;;;;;;;31.75;8.52;;;5.10;99.20;;;;;;5093232;28;20476;-81
2023/12/15 06:04:49;;;;;;;32.85;8.68;;;5.00;99.10;;;;;;5093032;28;20089;-79
2023/12/15 06:07:19;;;;;;;34.53;9.57;;;5.00;99.10;;;;;;5093292;28;20097;-79
2023/12/15 06:09:45;;;;;;;44.20;10.57;;;5.10;99.10;;;;;;5094056;27;20047;-82
2023/12/15 06:12:11;;;;;;;38.83;9.30;;;5.00;99.20;;;;;;5092828;28;20036;-82
2023/12/15 06:14:37;;;;;;;34.85;7.88;;;5.00;99.20;;;;;;5092881;27;20040;-83
2023/12/15 06:17:06;;;;;;;45.75;9.82;;;5.00;99.20;;;;;;5092800;28;20048;-79
2023/12/15 06:19:33;;;;;;;35.67;8.13;;;5.00;99.10;;;;;;5076016;28;20044;-81
2023/12/15 06:21:59;;;;;;;30.27;8.15;;;5.10;99.20;;;;;;5075812;28;20093;-84
2023/12/15 06:24:25;;;;;;;29.85;8.32;;;5.10;99.10;;;;;;5092622;28;20075;-79
2023/12/15 06:26:50;;;;;;;36.95;9.90;;;5.10;99.20;;;;;;5075660;28;20082;-81
2023/12/15 06:29:16;;;;;;;33.72;9.68;;;5.10;99.10;;;;;;5075552;28;20049;-80
2023/12/15 06:31:46;;;;;;;38.67;9.35;;;5.10;99.10;;;;;;5075884;28;20090;-80
2023/12/15 06:34:13;;;;;;;42.70;8.88;;;5.00;99.10;;;;;;5126534;27;20051;-78
2023/12/15 06:36:39;;;;;;;35.40;8.45;;;5.00;99.10;;;;;;5075478;28;20040;-79
2023/12/15 06:39:05;;;;;;;27.67;7.85;;;5.00;99.10;;;;;;5075382;28;20696;-81
2023/12/15 06:41:30;;;;;;;40.80;8.65;;;5.00;99.10;;;;;;5075153;28;20063;-81
2023/12/15 06:43:56;;;;;;;43.17;9.60;;;5.00;99.10;;;;;;5075396;28;20036;-81
2023/12/15 06:46:22;;;;;;;32.15;7.75;;;5.00;99.10;;;;;;5075298;28;20518;-81
2023/12/15 06:48:48;;;;;;;38.13;7.63;;;4.90;99.00;;;;;;5075275;28;20043;-81
2023/12/15 06:51:14;;;;;;;41.38;9.27;;;4.90;99.00;;;;;;5075251;28;20063;-82
2023/12/15 06:53:40;;;;;;;36.47;8.65;;;4.90;99.00;;;;;;5092119;28;20048;-79
2023/12/15 06:56:06;;;;;;;28.42;7.97;;;4.90;99.00;;;;;;5075240;28;20040;-80
2023/12/15 06:58:32;;;;;;;36.13;8.60;;;4.80;99.00;;;;;;5091810;28;20093;-79
2023/12/15 07:00:58;;;;;;;36.28;10.00;;;4.80;99.10;;;;;;5074967;28;20048;-82
2023/12/15 07:03:23;;;;;;;30.90;7.20;;;4.80;99.10;;;;;;5087796;28;20085;-78
2023/12/15 07:05:49;;;;;;;33.35;8.40;;;4.80;99.10;;;;;;5078134;28;20036;-82
2023/12/15 07:08:15;;;;;;;36.03;9.57;;;4.80;99.10;;;;;;5081001;28;20039;-79
2023/12/15 07:10:41;;;;;;;40.90;10.80;;;4.80;99.20;;;;;;5083466;28;20461;-78
2023/12/15 07:13:07;;;;;;;41.38;9.45;;;4.80;99.10;;;;;;5070972;28;20048;-78
2023/12/15 07:15:33;;;;;;;41.40;10.75;;;4.80;99.10;;;;;;5074985;28;20092;-85
2023/12/15 07:17:59;;;;;;;40.25;10.20;;;4.90;99.10;;;;;;5092028;28;20048;-79
2023/12/15 07:20:25;;;;;;;38.45;10.25;;;4.90;99.10;;;;;;5067798;28;20048;-80
2023/12/15 07:22:51;;;;;;;31.00;9.32;;;4.90;99.20;;;;;;5038093;28;20408;-78
2023/12/15 07:25:17;;;;;;;39.70;9.80;;;4.90;99.10;;;;;;5054672;28;20087;-83
2023/12/15 07:27:43;;;;;;;35.80;9.23;;;4.90;99.20;;;;;;5072144;28;20044;-80
2023/12/15 07:30:09;;;;;;;40.67;9.45;;;4.90;99.10;;;;;;5054712;28;20377;-84
2023/12/15 07:32:35;;;;;;;33.70;9.50;;;4.90;99.10;;;;;;5037631;28;20043;-79
2023/12/15 07:35:01;;;;;;;39.25;9.68;;;4.90;99.10;;;;;;5052788;28;20056;-81
2023/12/15 07:37:26;;;;;;;33.38;8.55;;;4.90;99.10;;;;;;5069232;28;20048;-80
2023/12/15 07:39:54;;;;;;;37.85;7.43;;;4.90;99.10;;;;;;5052539;28;20039;-79
2023/12/15 07:42:20;;;;;;;34.13;7.90;;;4.80;99.00;;;;;;5052592;28;20055;-81
2023/12/15 07:44:45;;;;;;;43.33;8.45;;;4.90;99.00;;;;;;5036286;28;20040;-79
2023/12/15 07:47:11;;;;;;;36.17;9.07;;;4.90;99.00;;;;;;5053773;28;20044;-82
2023/12/15 07:49:37;;;;;;;30.20;7.63;;;4.90;99.00;;;;;;5038036;28;20040;-80
2023/12/15 07:52:03;;;;;;;34.67;8.75;;;4.90;99.00;;;;;;5071397;28;20043;-81
2023/12/15 07:54:29;;;;;;;38.40;7.63;;;4.90;99.00;;;;;;5054512;28;20048;-79
2023/12/15 07:56:56;;;;;;;32.17;8.13;;;4.90;99.10;;;;;;5054502;28;20127;-80
2023/12/15 07:59:21;;;;;;;29.65;7.65;;;4.90;99.00;;;;;;5037774;28;20036;-78
2023/12/15 08:01:51;;;;;;;38.50;9.73;;;4.90;99.10;;;;;;5071117;28;20098;-80
2023/12/15 08:04:18;;;;;;;44.30;7.78;;;4.90;99.10;;;;;;5054568;28;20389;-81
2023/12/15 08:06:44;;;;;;;35.90;8.30;;;5.00;99.10;;;;;;5071196;28;20044;-79
2023/12/15 08:09:10;;;;;;;26.77;8.35;;;4.90;99.10;;;;;;5071415;28;20040;-80
2023/12/15 08:11:36;;;;;;;30.77;9.15;;;5.00;99.20;;;;;;5057382;28;20408;-81
2023/12/15 08:14:04;;;;;;;34.22;9.50;;;5.00;99.10;;;;;;5024992;28;20111;-80
2023/12/15 08:16:30;;;;;;;34.70;8.02;;;5.10;99.10;;;;;;5058304;28;20036;-78
2023/12/15 08:18:57;;;;;;;30.73;8.63;;;5.10;99.20;;;;;;5058098;28;20086;-81
2023/12/15 08:21:23;;;;;;;46.17;9.93;;;5.20;99.30;;;;;;5058006;28;20111;-80
2023/12/15 08:23:49;;;;;;;41.20;9.70;;;5.20;99.20;;;;;;5074424;28;20043;-79
2023/12/15 08:26:23;;;;;;;44.05;10.75;;;5.30;99.20;;;;;;5057892;28;20040;-81
2023/12/15 08:28:49;;;;;;;35.53;10.98;;;5.30;99.20;;;;;;5074542;28;20123;-82
2023/12/15 08:31:15;;;;;;;42.80;10.20;;;5.30;99.20;;;;;;5073895;28;20045;-81
2023/12/15 08:33:42;;;;;;;41.10;8.70;;;5.30;99.20;;;;;;5056046;28;20092;-83
2023/12/15 08:36:09;;;;;;;32.58;8.32;;;5.40;99.20;;;;;;5074548;28;20408;-81
2023/12/15 08:38:35;;;;;;;31.60;8.13;;;5.40;99.20;;;;;;5057882;28;20388;-81
2023/12/15 08:41:02;;;;;;;29.13;7.57;;;5.40;99.10;;;;;;5073591;28;20048;-84
2023/12/15 08:43:28;;;;;;;41.78;9.38;;;5.50;99.10;;;;;;5056961;28;20044;-82
2023/12/15 08:45:54;;;;;;;39.78;8.02;;;5.50;99.10;;;;;;5057219;28;20400;-83
2023/12/15 08:48:20;;;;;;;42.45;8.60;;;5.50;99.20;;;;;;5074481;28;20083;-81
2023/12/15 08:50:45;;;;;;;39.92;8.75;;;5.60;99.30;;;;;;5074124;28;20046;-80
2023/12/15 08:53:15;;;;;;;37.67;8.32;;;5.60;99.30;;;;;;5057663;28;20117;-82
2023/12/15 08:55:41;;;;;;;46.35;9.80;;;5.60;99.30;;;;;;5074119;28;20048;-81
2023/12/15 08:58:07;;;;;;;45.67;8.73;;;5.70;99.30;;;;;;5074249;28;20041;-82
2023/12/15 09:00:33;;;;;;;42.42;10.00;;;5.80;99.20;;;;;;5057708;28;20526;-80
2023/12/15 09:02:59;;;;;;;47.22;9.82;;;5.90;99.30;;;;;;5040169;28;20362;-79
2023/12/15 09:05:24;;;;;;;51.47;16.25;;;5.90;99.20;;;;;;5057175;28;20040;-83
2023/12/15 09:07:51;;;;;;;48.67;15.65;;;5.90;99.40;;;;;;5057196;28;20517;-80
2023/12/15 09:10:18;;;;;;;39.40;12.73;;;6.00;99.30;;;;;;5040702;28;20509;-84
2023/12/15 09:12:44;;;;;;;44.17;11.00;;;6.10;99.40;;;;;;5056990;28;20048;-81
2023/12/15 09:15:10;;;;;;;45.25;12.80;;;6.10;99.30;;;;;;5057033;28;20036;-82
2023/12/15 09:17:36;;;;;;;40.20;9.48;;;6.10;99.40;;;;;;5040402;28;20059;-79
2023/12/15 09:20:04;;;;;;;36.45;9.68;;;6.10;99.30;;;;;;5073816;28;20483;-83
2023/12/15 09:22:30;;;;;;;37.70;9.48;;;6.20;99.30;;;;;;5057014;28;20052;-80
2023/12/15 09:24:55;;;;;;;43.95;9.20;;;6.30;99.30;;;;;;5073437;28;20036;-80
2023/12/15 09:27:21;;;;;;;36.75;9.20;;;6.30;99.30;;;;;;5073426;28;20051;-82
2023/12/15 09:29:47;;;;;;;38.05;10.23;;;6.50;99.20;;;;;;5040306;28;20037;-81
2023/12/15 09:32:12;;;;;;;41.65;9.02;;;6.60;99.40;;;;;;5056929;28;20040;-79
2023/12/15 09:34:38;;;;;;;39.65;10.30;;;6.60;99.20;;;;;;5031314;28;20472;-80
2023/12/15 09:37:04;;;;;;;42.95;11.15;;;6.60;99.20;;;;;;5074722;28;20492;-81
2023/12/15 09:39:29;;;;;;;45.15;10.98;;;6.70;99.20;;;;;;5077825;28;20047;-80
2023/12/15 09:41:55;;;;;;;39.53;9.38;;;6.70;99.10;;;;;;5043261;28;20071;-81
2023/12/15 09:44:21;;;;;;;35.10;7.10;;;6.80;99.10;;;;;;5057578;28;20056;-79
2023/12/15 09:46:48;;;;;;;41.63;9.70;;;6.90;99.00;;;;;;5073096;28;20060;-80
2023/12/15 09:49:17;;;;;;;46.50;10.63;;;7.00;99.00;;;;;;5074283;28;20049;-78
2023/12/15 09:51:50;;;;;;;46.80;9.82;;;7.00;99.10;;;;;;5060291;28;20082;-77
2023/12/15 09:54:16;;;;;;;31.83;9.57;;;7.10;99.10;;;;;;5039690;28;20488;-81
2023/12/15 09:56:43;;;;;;;43.40;9.55;;;7.10;99.10;;;;;;5056776;28;20045;-78
2023/12/15 09:59:09;;;;;;;37.95;9.77;;;7.20;99.00;;;;;;5073568;28;20115;-78
2023/12/15 10:01:35;;;;;;;42.08;9.82;;;7.30;99.00;;;;;;5056552;28;20488;-79
2023/12/15 10:04:00;;;;;;;49.60;10.02;;;7.30;99.00;;;;;;5070147;28;20048;-83
2023/12/15 10:06:26;;;;;;;34.05;8.02;;;7.40;99.00;;;;;;5036408;28;20127;-77
2023/12/15 10:08:52;;;;;;;35.28;8.05;;;7.40;99.00;;;;;;5076780;28;20043;-82
2023/12/15 10:11:18;;;;;;;40.28;9.82;;;7.50;99.00;;;;;;5070739;28;20453;-79
2023/12/15 10:13:44;;;;;;;37.42;8.25;;;7.50;99.00;;;;;;5076229;28;20052;-81
2023/12/15 10:16:11;;;;;;;34.38;9.32;;;7.50;98.90;;;;;;5058407;28;20043;-81
2023/12/15 10:18:40;;;;;;;32.65;8.45;;;7.60;98.90;;;;;;5059596;28;20101;-80
2023/12/15 10:21:06;;;;;;;34.30;8.43;;;7.60;98.80;;;;;;5060333;28;20084;-79
2023/12/15 10:23:32;;;;;;;41.58;10.88;;;7.70;98.80;;;;;;5055007;28;20044;-78
2023/12/15 10:25:59;;;;;;;36.90;8.82;;;7.70;98.80;;;;;;5056884;28;20047;-80
2023/12/15 10:28:25;;;;;;;39.72;8.13;;;7.80;98.80;;;;;;5069911;28;20043;-81
2023/12/15 10:30:51;;;;;;;43.47;8.43;;;7.80;98.70;;;;;;5074322;28;20047;-82
2023/12/15 10:33:18;;;;;;;35.88;8.70;;;7.90;98.70;;;;;;5058367;28;20040;-81
2023/12/15 10:35:48;;;;;;;44.25;8.52;;;7.90;98.70;;;;;;5074099;28;20040;-83
2023/12/15 10:38:15;;;;;;;31.90;9.32;;;7.90;98.70;;;;;;5075735;28;20127;-82
2023/12/15 10:40:44;;;;;;;40.42;10.57;;;8.00;98.70;;;;;;5074811;28;20087;-80
2023/12/15 10:43:11;;;;;;;36.50;10.85;;;8.00;98.70;;;;;;5075318;28;20086;-80
2023/12/15 10:45:37;;;;;;;35.63;8.07;;;8.10;98.60;;;;;;5075287;28;20072;-81
2023/12/15 10:48:03;;;;;;;38.45;8.35;;;8.10;98.60;;;;;;5092198;28;20090;-82
2023/12/15 10:50:30;;;;;;;39.58;8.88;;;8.10;98.60;;;;;;5058747;28;20503;-83
2023/12/15 10:52:57;;;;;;;30.10;8.00;;;8.20;98.60;;;;;;5092137;28;20047;-79
2023/12/15 10:55:26;;;;;;;40.00;9.38;;;8.20;98.60;;;;;;5075287;28;20040;-82
2023/12/15 10:57:59;;;;;;;43.58;9.05;;;8.20;98.60;;;;;;5092248;28;20036;-82
2023/12/15 11:00:25;;;;;;;37.80;8.63;;;8.20;98.60;;;;;;5058999;28;20044;-81
2023/12/15 11:02:53;;;;;;;35.70;8.38;;;8.30;98.60;;;;;;5075109;28;20104;-82
2023/12/15 11:05:18;;;;;;;30.80;8.00;;;8.40;98.60;;;;;;5092226;28;20044;-83
2023/12/15 11:07:44;;;;;;;31.15;7.68;;;8.40;98.60;;;;;;5075219;28;20373;-81
2023/12/15 11:10:12;;;;;;;36.17;8.07;;;8.50;98.50;;;;;;5091912;28;20070;-82
2023/12/15 11:12:39;;;;;;;29.88;8.75;;;8.40;98.50;;;;;;5091722;28;20070;-83
2023/12/15 11:15:13;;;;;;;48.72;9.98;;;8.40;98.50;;;;;;5075271;28;20540;-81
2023/12/15 11:17:45;;;;;;;39.47;8.95;;;8.40;98.40;;;;;;5091861;28;20046;-81
2023/12/15 11:20:20;;;;;;;31.08;9.13;;;8.50;98.40;;;;;;5075363;28;20044;-81
2023/12/15 11:23:04;;;;;;;39.90;9.50;;;8.50;98.30;;;;;;5075658;28;20036;-84
2023/12/15 11:25:35;;;;;;;31.13;9.50;;;8.50;98.20;;;;;;5075528;28;20036;-80
2023/12/15 11:28:08;;;;;;;42.65;10.13;;;8.60;98.00;;;;;;5092423;28;20559;-82
2023/12/15 11:30:36;;;;;;;38.60;11.20;;;8.60;98.10;;;;;;5091899;28;20668;-79
2023/12/15 11:33:30;;;;;;;39.13;10.00;;;8.80;97.90;;;;;;5058753;28;20072;-81
2023/12/15 11:36:04;;;;;;;38.78;10.88;;;8.90;97.70;;;;;;5075180;28;20545;-81
2023/12/15 11:38:30;;;;;;;34.93;8.50;;;9.00;97.50;;;;;;5092213;28;20040;-80
2023/12/15 11:40:57;;;;;;;39.10;9.05;;;9.10;97.50;;;;;;5074965;28;20310;-80
2023/12/15 11:43:26;;;;;;;51.45;10.60;;;9.30;97.30;;;;;;5092443;28;20396;-82
2023/12/15 11:45:53;;;;;;;38.22;10.30;;;9.10;97.20;;;;;;5094669;28;20067;-80
2023/12/15 11:48:21;;;;;;;37.53;8.75;;;9.20;96.90;;;;;;5079289;28;20044;-82
2023/12/15 11:50:47;;;;;;;30.00;8.25;;;9.20;96.70;;;;;;5095971;28;20079;-84
2023/12/15 11:53:14;;;;;;;34.28;7.72;;;9.20;96.40;;;;;;5078927;28;20067;-84
2023/12/15 11:55:45;;;;;;;40.38;10.32;;;9.20;96.20;;;;;;5095857;28;20127;-80
2023/12/15 11:58:14;;;;;;;38.90;8.40;;;9.10;96.10;;;;;;5079214;28;20134;-83
2023/12/15 12:00:40;;;;;;;38.75;9.45;;;9.10;96.20;;;;;;5095941;28;20073;-83
2023/12/15 12:03:09;;;;;;;30.75;8.52;;;9.10;96.20;;;;;;5095840;28;20036;-84
2023/12/15 12:05:35;;;;;;;32.47;7.43;;;9.10;96.10;;;;;;5095802;28;20044;-81
2023/12/15 12:08:01;;;;;;;34.15;7.40;;;9.10;96.30;;;;;;5096393;28;20383;-81
2023/12/15 12:10:35;;;;;;;39.17;8.57;;;9.00;96.30;;;;;;5096035;28;20388;-79
2023/12/15 12:13:02;;;;;;;35.72;8.10;;;9.10;96.20;;;;;;5079443;28;20556;-80
2023/12/15 12:15:28;;;;;;;32.60;8.00;;;9.00;96.20;;;;;;5079208;28;20044;-81
2023/12/15 12:17:53;;;;;;;36.15;8.48;;;9.00;96.30;;;;;;5079268;28;20063;-80
2023/12/15 12:20:19;;;;;;;37.35;8.18;;;9.10;96.20;;;;;;5078784;28;20043;-82
2023/12/15 12:22:46;;;;;;;34.95;6.88;;;9.10;96.20;;;;;;5078659;28;20445;-86
2023/12/15 12:25:15;;;;;;;32.47;7.80;;;9.10;96.30;;;;;;5078845;28;20044;-80
2023/12/15 12:27:41;;;;;;;30.45;10.45;;;9.20;96.00;;;;;;5095875;28;20137;-82
2023/12/15 12:30:12;;;;;;;30.92;9.70;;;9.30;95.80;;;;;;5095272;28;20043;-79
2023/12/15 12:32:39;;;;;;;30.35;8.65;;;9.50;95.50;;;;;;5078325;28;20122;-79
2023/12/15 12:35:05;;;;;;;27.02;7.63;;;9.70;95.30;;;;;;5078517;28;20043;-80
2023/12/15 12:37:34;;;;;;;31.55;8.60;;;9.80;94.70;;;;;;5078434;28;20044;-82